sensor_id;sensor_type;location;lat;lon;timestamp;temperature;humidity
26099;DHT22;13860;52.370;6.764;2023-08-21T00:01:42;20.20;67.40
26099;DHT22;13860;52.370;6.764;2023-08-21T00:04:50;20.10;67.80
26099;DHT22;13860;52.370;6.764;2023-08-21T00:07:55;20.10;67.50
26099;DHT22;13860;52.370;6.764;2023-08-21T00:11:03;20.10;67.60
26099;DHT22;13860;52.370;6.764;2023-08-21T00:14:11;20.00;67.70
26099;DHT22;13860;52.370;6.764;2023-08-21T00:17:18;20.00;67.80
26099;DHT22;13860;52.370;6.764;2023-08-21T00:20:30;19.90;67.90
26099;DHT22;13860;52.370;6.764;2023-08-21T00:23:37;19.90;67.90
26099;DHT22;13860;52.370;6.764;2023-08-21T00:26:43;19.90;68.10
26099;DHT22;13860;52.370;6.764;2023-08-21T00:29:53;19.70;68.10
26099;DHT22;13860;52.370;6.764;2023-08-21T00:33:06;19.80;68.30
26099;DHT22;13860;52.370;6.764;2023-08-21T00:36:13;19.80;68.30
26099;DHT22;13860;52.370;6.764;2023-08-21T00:39:19;19.80;68.40
26099;DHT22;13860;52.370;6.764;2023-08-21T00:42:27;19.70;68.40
26099;DHT22;13860;52.370;6.764;2023-08-21T00:45:36;19.70;68.40
26099;DHT22;13860;52.370;6.764;2023-08-21T00:48:44;19.70;68.60
26099;DHT22;13860;52.370;6.764;2023-08-21T00:51:50;19.70;68.60
26099;DHT22;13860;52.370;6.764;2023-08-21T00:54:58;19.70;68.80
26099;DHT22;13860;52.370;6.764;2023-08-21T00:58:06;19.60;69.40
26099;DHT22;13860;52.370;6.764;2023-08-21T01:01:18;19.60;68.90
26099;DHT22;13860;52.370;6.764;2023-08-21T01:04:25;19.60;69.10
26099;DHT22;13860;52.370;6.764;2023-08-21T01:07:47;19.50;69.10
26099;DHT22;13860;52.370;6.764;2023-08-21T01:10:58;19.50;69.20
26099;DHT22;13860;52.370;6.764;2023-08-21T01:14:14;19.50;69.20
26099;DHT22;13860;52.370;6.764;2023-08-21T01:17:24;19.50;69.90
26099;DHT22;13860;52.370;6.764;2023-08-21T01:20:35;19.50;69.30
26099;DHT22;13860;52.370;6.764;2023-08-21T01:23:44;19.50;69.30
26099;DHT22;13860;52.370;6.764;2023-08-21T01:26:51;19.50;69.50
26099;DHT22;13860;52.370;6.764;2023-08-21T01:29:57;19.50;69.50
26099;DHT22;13860;52.370;6.764;2023-08-21T01:33:08;19.40;69.40
26099;DHT22;13860;52.370;6.764;2023-08-21T01:36:15;19.40;69.60
26099;DHT22;13860;52.370;6.764;2023-08-21T01:39:26;19.40;69.60
26099;DHT22;13860;52.370;6.764;2023-08-21T01:42:31;19.40;69.70
26099;DHT22;13860;52.370;6.764;2023-08-21T01:45:39;19.40;69.70
26099;DHT22;13860;52.370;6.764;2023-08-21T01:48:45;19.30;69.70
26099;DHT22;13860;52.370;6.764;2023-08-21T01:51:53;19.30;69.80
26099;DHT22;13860;52.370;6.764;2023-08-21T01:55:03;19.30;69.90
26099;DHT22;13860;52.370;6.764;2023-08-21T01:58:12;19.30;70.10
26099;DHT22;13860;52.370;6.764;2023-08-21T02:01:18;19.30;70.20
26099;DHT22;13860;52.370;6.764;2023-08-21T02:04:26;19.30;70.30
26099;DHT22;13860;52.370;6.764;2023-08-21T02:07:31;19.20;70.20
26099;DHT22;13860;52.370;6.764;2023-08-21T02:10:49;19.20;70.30
26099;DHT22;13860;52.370;6.764;2023-08-21T02:13:54;19.20;70.50
26099;DHT22;13860;52.370;6.764;2023-08-21T02:17:03;19.20;70.40
26099;DHT22;13860;52.370;6.764;2023-08-21T02:20:10;19.20;70.40
26099;DHT22;13860;52.370;6.764;2023-08-21T02:23:17;19.10;70.40
26099;DHT22;13860;52.370;6.764;2023-08-21T02:26:25;19.10;70.40
26099;DHT22;13860;52.370;6.764;2023-08-21T02:29:33;19.10;70.50
26099;DHT22;13860;52.370;6.764;2023-08-21T02:32:39;19.10;70.50
26099;DHT22;13860;52.370;6.764;2023-08-21T02:35:47;19.00;70.60
26099;DHT22;13860;52.370;6.764;2023-08-21T02:38:52;19.10;70.80
26099;DHT22;13860;52.370;6.764;2023-08-21T02:42:02;19.00;70.80
26099;DHT22;13860;52.370;6.764;2023-08-21T02:45:09;19.00;71.00
26099;DHT22;13860;52.370;6.764;2023-08-21T02:48:16;19.00;71.10
26099;DHT22;13860;52.370;6.764;2023-08-21T02:51:22;19.00;71.10
26099;DHT22;13860;52.370;6.764;2023-08-21T02:54:30;19.00;71.10
26099;DHT22;13860;52.370;6.764;2023-08-21T02:57:37;19.00;71.20
26099;DHT22;13860;52.370;6.764;2023-08-21T03:00:46;19.00;71.40
26099;DHT22;13860;52.370;6.764;2023-08-21T03:03:52;19.00;71.40
26099;DHT22;13860;52.370;6.764;2023-08-21T03:06:59;19.00;71.40
26099;DHT22;13860;52.370;6.764;2023-08-21T03:10:07;19.00;71.50
26099;DHT22;13860;52.370;6.764;2023-08-21T03:13:19;19.00;71.40
26099;DHT22;13860;52.370;6.764;2023-08-21T03:16:24;19.00;71.50
26099;DHT22;13860;52.370;6.764;2023-08-21T03:19:32;19.00;71.50
26099;DHT22;13860;52.370;6.764;2023-08-21T03:22:38;19.00;71.60
26099;DHT22;13860;52.370;6.764;2023-08-21T03:25:46;19.00;71.70
26099;DHT22;13860;52.370;6.764;2023-08-21T03:28:54;19.00;71.80
26099;DHT22;13860;52.370;6.764;2023-08-21T03:32:02;19.00;71.90
26099;DHT22;13860;52.370;6.764;2023-08-21T03:35:08;19.00;71.90
26099;DHT22;13860;52.370;6.764;2023-08-21T03:38:15;19.00;72.00
26099;DHT22;13860;52.370;6.764;2023-08-21T03:41:22;18.90;72.00
26099;DHT22;13860;52.370;6.764;2023-08-21T03:44:32;19.00;72.00
26099;DHT22;13860;52.370;6.764;2023-08-21T03:47:38;18.90;72.10
26099;DHT22;13860;52.370;6.764;2023-08-21T03:50:53;18.90;72.00
26099;DHT22;13860;52.370;6.764;2023-08-21T03:53:59;18.90;72.10
26099;DHT22;13860;52.370;6.764;2023-08-21T03:57:07;18.90;72.00
26099;DHT22;13860;52.370;6.764;2023-08-21T04:00:16;18.80;72.40
26099;DHT22;13860;52.370;6.764;2023-08-21T04:03:23;18.80;72.10
26099;DHT22;13860;52.370;6.764;2023-08-21T04:06:30;18.80;72.10
26099;DHT22;13860;52.370;6.764;2023-08-21T04:09:37;18.80;72.20
26099;DHT22;13860;52.370;6.764;2023-08-21T04:12:42;18.80;72.20
26099;DHT22;13860;52.370;6.764;2023-08-21T04:15:53;18.70;72.10
26099;DHT22;13860;52.370;6.764;2023-08-21T04:18:59;18.70;72.20
26099;DHT22;13860;52.370;6.764;2023-08-21T04:22:07;18.70;72.30
26099;DHT22;13860;52.370;6.764;2023-08-21T04:25:12;18.60;72.20
26099;DHT22;13860;52.370;6.764;2023-08-21T04:28:20;18.60;72.20
26099;DHT22;13860;52.370;6.764;2023-08-21T04:31:28;18.60;72.30
26099;DHT22;13860;52.370;6.764;2023-08-21T04:34:36;18.60;72.40
26099;DHT22;13860;52.370;6.764;2023-08-21T04:37:47;18.70;72.50
26099;DHT22;13860;52.370;6.764;2023-08-21T04:41:05;18.50;72.50
26099;DHT22;13860;52.370;6.764;2023-08-21T04:44:14;18.50;72.70
26099;DHT22;13860;52.370;6.764;2023-08-21T04:47:26;18.40;72.60
26099;DHT22;13860;52.370;6.764;2023-08-21T04:50:34;18.40;72.60
26099;DHT22;13860;52.370;6.764;2023-08-21T04:53:42;18.40;72.60
26099;DHT22;13860;52.370;6.764;2023-08-21T04:56:52;18.40;72.60
26099;DHT22;13860;52.370;6.764;2023-08-21T04:59:59;18.40;72.70
26099;DHT22;13860;52.370;6.764;2023-08-21T05:03:14;18.40;73.30
26099;DHT22;13860;52.370;6.764;2023-08-21T05:06:22;18.30;72.80
26099;DHT22;13860;52.370;6.764;2023-08-21T05:09:27;18.30;73.50
26099;DHT22;13860;52.370;6.764;2023-08-21T05:12:35;18.30;73.00
26099;DHT22;13860;52.370;6.764;2023-08-21T05:15:41;18.20;73.00
26099;DHT22;13860;52.370;6.764;2023-08-21T05:18:51;18.20;73.10
26099;DHT22;13860;52.370;6.764;2023-08-21T05:21:57;18.20;73.40
26099;DHT22;13860;52.370;6.764;2023-08-21T05:25:08;18.20;73.40
26099;DHT22;13860;52.370;6.764;2023-08-21T05:28:14;18.20;73.50
26099;DHT22;13860;52.370;6.764;2023-08-21T05:31:21;18.30;73.60
26099;DHT22;13860;52.370;6.764;2023-08-21T05:34:31;18.20;73.60
26099;DHT22;13860;52.370;6.764;2023-08-21T05:37:39;18.30;73.80
26099;DHT22;13860;52.370;6.764;2023-08-21T05:40:45;18.30;73.70
26099;DHT22;13860;52.370;6.764;2023-08-21T05:43:55;18.30;73.70
26099;DHT22;13860;52.370;6.764;2023-08-21T05:47:02;18.40;73.80
26099;DHT22;13860;52.370;6.764;2023-08-21T05:50:14;18.40;73.90
26099;DHT22;13860;52.370;6.764;2023-08-21T05:53:19;18.40;73.90
26099;DHT22;13860;52.370;6.764;2023-08-21T05:56:26;18.40;73.90
26099;DHT22;13860;52.370;6.764;2023-08-21T05:59:33;18.50;74.00
26099;DHT22;13860;52.370;6.764;2023-08-21T06:02:40;18.50;74.10
26099;DHT22;13860;52.370;6.764;2023-08-21T06:06:02;18.50;74.10
26099;DHT22;13860;52.370;6.764;2023-08-21T06:09:09;18.60;74.20
26099;DHT22;13860;52.370;6.764;2023-08-21T06:12:16;18.60;74.10
26099;DHT22;13860;52.370;6.764;2023-08-21T06:15:25;18.70;74.20
26099;DHT22;13860;52.370;6.764;2023-08-21T06:18:34;19.10;74.50
26099;DHT22;13860;52.370;6.764;2023-08-21T06:21:44;18.90;74.50
26099;DHT22;13860;52.370;6.764;2023-08-21T06:24:49;19.10;74.60
26099;DHT22;13860;52.370;6.764;2023-08-21T06:27:57;19.20;74.60
26099;DHT22;13860;52.370;6.764;2023-08-21T06:31:02;19.30;74.60
26099;DHT22;13860;52.370;6.764;2023-08-21T06:34:12;19.50;74.60
26099;DHT22;13860;52.370;6.764;2023-08-21T06:37:20;19.60;74.50
26099;DHT22;13860;52.370;6.764;2023-08-21T06:40:31;19.80;74.50
26099;DHT22;13860;52.370;6.764;2023-08-21T06:43:36;20.00;74.30
26099;DHT22;13860;52.370;6.764;2023-08-21T06:46:49;20.10;74.40
26099;DHT22;13860;52.370;6.764;2023-08-21T06:49:54;20.30;74.40
26099;DHT22;13860;52.370;6.764;2023-08-21T06:53:04;20.40;74.20
26099;DHT22;13860;52.370;6.764;2023-08-21T06:56:10;20.60;74.20
26099;DHT22;13860;52.370;6.764;2023-08-21T06:59:18;20.80;74.10
26099;DHT22;13860;52.370;6.764;2023-08-21T07:02:23;21.00;74.00
26099;DHT22;13860;52.370;6.764;2023-08-21T07:05:31;21.20;73.90
26099;DHT22;13860;52.370;6.764;2023-08-21T07:08:39;21.50;73.90
26099;DHT22;13860;52.370;6.764;2023-08-21T07:11:46;21.70;73.60
26099;DHT22;13860;52.370;6.764;2023-08-21T07:14:52;21.90;73.40
26099;DHT22;13860;52.370;6.764;2023-08-21T07:18:03;22.10;73.20
26099;DHT22;13860;52.370;6.764;2023-08-21T07:21:10;22.20;72.90
26099;DHT22;13860;52.370;6.764;2023-08-21T07:24:44;22.30;73.40
26099;DHT22;13860;52.370;6.764;2023-08-21T07:27:49;22.50;72.80
26099;DHT22;13860;52.370;6.764;2023-08-21T07:30:57;22.60;72.70
26099;DHT22;13860;52.370;6.764;2023-08-21T07:34:03;22.90;72.70
26099;DHT22;13860;52.370;6.764;2023-08-21T07:37:10;23.00;72.40
26099;DHT22;13860;52.370;6.764;2023-08-21T07:40:18;23.10;72.30
26099;DHT22;13860;52.370;6.764;2023-08-21T07:43:26;23.40;72.50
26099;DHT22;13860;52.370;6.764;2023-08-21T07:46:31;23.60;73.60
26099;DHT22;13860;52.370;6.764;2023-08-21T07:49:38;23.90;81.30
26099;DHT22;13860;52.370;6.764;2023-08-21T07:52:44;24.00;77.40
26099;DHT22;13860;52.370;6.764;2023-08-21T07:55:54;24.30;78.10
26099;DHT22;13860;52.370;6.764;2023-08-21T07:58:59;24.50;78.40
26099;DHT22;13860;52.370;6.764;2023-08-21T08:02:07;24.50;78.20
26099;DHT22;13860;52.370;6.764;2023-08-21T08:05:14;24.60;77.10
26099;DHT22;13860;52.370;6.764;2023-08-21T08:08:21;24.70;75.40
26099;DHT22;13860;52.370;6.764;2023-08-21T08:11:30;24.80;75.60
26099;DHT22;13860;52.370;6.764;2023-08-21T08:14:38;24.90;74.70
26099;DHT22;13860;52.370;6.764;2023-08-21T08:17:43;25.10;74.90
26099;DHT22;13860;52.370;6.764;2023-08-21T08:20:56;25.20;73.60
26099;DHT22;13860;52.370;6.764;2023-08-21T08:24:02;25.30;74.70
26099;DHT22;13860;52.370;6.764;2023-08-21T08:27:12;25.40;73.20
26099;DHT22;13860;52.370;6.764;2023-08-21T08:30:18;25.50;73.10
26099;DHT22;13860;52.370;6.764;2023-08-21T08:33:25;25.60;72.60
26099;DHT22;13860;52.370;6.764;2023-08-21T08:36:31;25.60;71.80
26099;DHT22;13860;52.370;6.764;2023-08-21T08:39:38;25.70;71.10
26099;DHT22;13860;52.370;6.764;2023-08-21T08:42:47;25.80;71.40
26099;DHT22;13860;52.370;6.764;2023-08-21T08:45:56;25.90;71.40
26099;DHT22;13860;52.370;6.764;2023-08-21T08:49:03;26.00;70.50
26099;DHT22;13860;52.370;6.764;2023-08-21T08:52:11;26.20;70.10
26099;DHT22;13860;52.370;6.764;2023-08-21T08:55:17;26.20;69.40
26099;DHT22;13860;52.370;6.764;2023-08-21T08:58:27;26.30;68.90
26099;DHT22;13860;52.370;6.764;2023-08-21T09:01:32;26.40;67.90
26099;DHT22;13860;52.370;6.764;2023-08-21T09:04:39;26.50;66.60
26099;DHT22;13860;52.370;6.764;2023-08-21T09:07:45;26.50;66.00
26099;DHT22;13860;52.370;6.764;2023-08-21T09:10:54;26.60;65.60
26099;DHT22;13860;52.370;6.764;2023-08-21T09:14:01;26.70;65.30
26099;DHT22;13860;52.370;6.764;2023-08-21T09:17:09;26.70;65.10
26099;DHT22;13860;52.370;6.764;2023-08-21T09:20:15;26.80;65.10
26099;DHT22;13860;52.370;6.764;2023-08-21T09:23:22;26.80;64.90
26099;DHT22;13860;52.370;6.764;2023-08-21T09:26:30;26.80;64.60
26099;DHT22;13860;52.370;6.764;2023-08-21T09:29:41;26.90;64.20
26099;DHT22;13860;52.370;6.764;2023-08-21T09:32:53;26.90;64.20
26099;DHT22;13860;52.370;6.764;2023-08-21T09:36:03;26.90;64.10
26099;DHT22;13860;52.370;6.764;2023-08-21T09:39:15;26.80;64.10
26099;DHT22;13860;52.370;6.764;2023-08-21T09:42:23;26.90;63.80
26099;DHT22;13860;52.370;6.764;2023-08-21T09:45:31;26.90;64.50
26099;DHT22;13860;52.370;6.764;2023-08-21T09:48:41;26.80;64.20
26099;DHT22;13860;52.370;6.764;2023-08-21T09:51:46;26.80;64.10
26099;DHT22;13860;52.370;6.764;2023-08-21T09:54:56;26.80;64.00
26099;DHT22;13860;52.370;6.764;2023-08-21T09:58:02;26.70;63.80
26099;DHT22;13860;52.370;6.764;2023-08-21T10:01:14;26.70;63.90
26099;DHT22;13860;52.370;6.764;2023-08-21T10:04:22;26.80;63.70
26099;DHT22;13860;52.370;6.764;2023-08-21T10:07:30;26.80;63.80
26099;DHT22;13860;52.370;6.764;2023-08-21T10:10:37;26.90;63.70
26099;DHT22;13860;52.370;6.764;2023-08-21T10:13:45;27.00;63.70
26099;DHT22;13860;52.370;6.764;2023-08-21T10:16:54;27.10;63.50
26099;DHT22;13860;52.370;6.764;2023-08-21T10:20:03;27.20;63.30
26099;DHT22;13860;52.370;6.764;2023-08-21T10:23:08;27.40;63.00
26099;DHT22;13860;52.370;6.764;2023-08-21T10:26:18;27.40;62.50
26099;DHT22;13860;52.370;6.764;2023-08-21T10:29:24;27.70;62.20
26099;DHT22;13860;52.370;6.764;2023-08-21T10:32:34;27.80;61.80
26099;DHT22;13860;52.370;6.764;2023-08-21T10:35:40;27.90;61.30
26099;DHT22;13860;52.370;6.764;2023-08-21T10:38:59;28.00;61.40
26099;DHT22;13860;52.370;6.764;2023-08-21T10:42:08;28.10;60.60
26099;DHT22;13860;52.370;6.764;2023-08-21T10:45:18;28.10;60.60
26099;DHT22;13860;52.370;6.764;2023-08-21T10:48:26;28.20;60.30
26099;DHT22;13860;52.370;6.764;2023-08-21T10:51:35;28.30;60.00
26099;DHT22;13860;52.370;6.764;2023-08-21T10:54:45;28.40;60.10
26099;DHT22;13860;52.370;6.764;2023-08-21T10:57:52;28.50;59.80
26099;DHT22;13860;52.370;6.764;2023-08-21T11:00:58;28.60;59.70
26099;DHT22;13860;52.370;6.764;2023-08-21T11:04:08;28.80;59.60
26099;DHT22;13860;52.370;6.764;2023-08-21T11:07:14;28.90;59.20
26099;DHT22;13860;52.370;6.764;2023-08-21T11:10:23;29.00;59.70
26099;DHT22;13860;52.370;6.764;2023-08-21T11:13:28;29.20;58.80
26099;DHT22;13860;52.370;6.764;2023-08-21T11:16:36;29.30;58.60
26099;DHT22;13860;52.370;6.764;2023-08-21T11:19:44;29.40;58.20
26099;DHT22;13860;52.370;6.764;2023-08-21T11:22:56;29.50;58.00
26099;DHT22;13860;52.370;6.764;2023-08-21T11:26:03;29.60;57.70
26099;DHT22;13860;52.370;6.764;2023-08-21T11:29:24;29.80;57.70
26099;DHT22;13860;52.370;6.764;2023-08-21T11:32:30;29.90;57.60
26099;DHT22;13860;52.370;6.764;2023-08-21T11:35:44;30.00;57.60
26099;DHT22;13860;52.370;6.764;2023-08-21T11:38:59;30.10;57.50
26099;DHT22;13860;52.370;6.764;2023-08-21T11:42:09;30.20;57.60
26099;DHT22;13860;52.370;6.764;2023-08-21T11:45:16;30.40;58.00
26099;DHT22;13860;52.370;6.764;2023-08-21T11:48:23;30.50;58.50
26099;DHT22;13860;52.370;6.764;2023-08-21T11:51:38;30.60;58.90
26099;DHT22;13860;52.370;6.764;2023-08-21T11:54:47;30.70;59.10
26099;DHT22;13860;52.370;6.764;2023-08-21T11:57:53;30.70;59.90
26099;DHT22;13860;52.370;6.764;2023-08-21T12:01:03;30.90;61.20
26099;DHT22;13860;52.370;6.764;2023-08-21T12:04:14;30.90;61.60
26099;DHT22;13860;52.370;6.764;2023-08-21T12:07:25;30.90;62.30
26099;DHT22;13860;52.370;6.764;2023-08-21T12:10:30;31.00;66.30
26099;DHT22;13860;52.370;6.764;2023-08-21T12:13:38;31.10;70.10
26099;DHT22;13860;52.370;6.764;2023-08-21T12:16:43;31.20;73.10
26099;DHT22;13860;52.370;6.764;2023-08-21T12:19:51;31.30;83.80
26099;DHT22;13860;52.370;6.764;2023-08-21T12:22:59;30.70;83.80
26099;DHT22;13860;52.370;6.764;2023-08-21T12:26:06;31.40;76.40
26099;DHT22;13860;52.370;6.764;2023-08-21T12:29:11;31.40;77.70
26099;DHT22;13860;52.370;6.764;2023-08-21T12:32:19;31.30;73.10
26099;DHT22;13860;52.370;6.764;2023-08-21T12:35:24;31.40;74.30
26099;DHT22;13860;52.370;6.764;2023-08-21T12:38:34;31.40;74.30
26099;DHT22;13860;52.370;6.764;2023-08-21T12:41:40;31.40;72.40
26099;DHT22;13860;52.370;6.764;2023-08-21T12:44:47;31.40;71.90
26099;DHT22;13860;52.370;6.764;2023-08-21T12:47:53;31.40;67.90
26099;DHT22;13860;52.370;6.764;2023-08-21T12:51:01;31.30;65.70
26099;DHT22;13860;52.370;6.764;2023-08-21T12:54:10;31.50;64.20
26099;DHT22;13860;52.370;6.764;2023-08-21T12:57:19;31.40;61.50
26099;DHT22;13860;52.370;6.764;2023-08-21T13:00:25;31.50;60.90
26099;DHT22;13860;52.370;6.764;2023-08-21T13:03:33;31.50;60.10
26099;DHT22;13860;52.370;6.764;2023-08-21T13:06:39;31.50;60.50
26099;DHT22;13860;52.370;6.764;2023-08-21T13:09:48;31.60;59.10
26099;DHT22;13860;52.370;6.764;2023-08-21T13:12:54;31.60;59.50
26099;DHT22;13860;52.370;6.764;2023-08-21T13:16:01;31.70;59.90
26099;DHT22;13860;52.370;6.764;2023-08-21T13:19:07;31.70;58.20
26099;DHT22;13860;52.370;6.764;2023-08-21T13:22:16;31.70;60.30
26099;DHT22;13860;52.370;6.764;2023-08-21T13:25:24;31.70;59.50
26099;DHT22;13860;52.370;6.764;2023-08-21T13:28:33;31.70;59.30
26099;DHT22;13860;52.370;6.764;2023-08-21T13:31:38;31.60;59.30
26099;DHT22;13860;52.370;6.764;2023-08-21T13:34:45;31.70;60.30
26099;DHT22;13860;52.370;6.764;2023-08-21T13:37:51;31.60;60.90
26099;DHT22;13860;52.370;6.764;2023-08-21T13:41:01;31.60;61.00
26099;DHT22;13860;52.370;6.764;2023-08-21T13:44:07;31.40;61.20
26099;DHT22;13860;52.370;6.764;2023-08-21T13:47:14;31.40;61.80
26099;DHT22;13860;52.370;6.764;2023-08-21T13:50:20;31.30;61.90
26099;DHT22;13860;52.370;6.764;2023-08-21T13:53:27;31.30;61.50
26099;DHT22;13860;52.370;6.764;2023-08-21T13:56:35;31.20;62.50
26099;DHT22;13860;52.370;6.764;2023-08-21T13:59:42;31.10;61.20
26099;DHT22;13860;52.370;6.764;2023-08-21T14:02:48;31.00;62.40
26099;DHT22;13860;52.370;6.764;2023-08-21T14:05:55;31.00;62.00
26099;DHT22;13860;52.370;6.764;2023-08-21T14:09:01;31.30;64.00
26099;DHT22;13860;52.370;6.764;2023-08-21T14:12:13;30.90;64.00
26099;DHT22;13860;52.370;6.764;2023-08-21T14:15:19;30.70;64.10
26099;DHT22;13860;52.370;6.764;2023-08-21T14:18:26;30.60;66.30
26099;DHT22;13860;52.370;6.764;2023-08-21T14:21:31;30.50;75.00
26099;DHT22;13860;52.370;6.764;2023-08-21T14:24:42;30.40;59.40
26099;DHT22;13860;52.370;6.764;2023-08-21T14:27:53;30.40;59.70
26099;DHT22;13860;52.370;6.764;2023-08-21T14:31:00;30.30;60.60
26099;DHT22;13860;52.370;6.764;2023-08-21T14:34:06;30.20;60.60
26099;DHT22;13860;52.370;6.764;2023-08-21T14:37:14;30.10;60.30
26099;DHT22;13860;52.370;6.764;2023-08-21T14:40:19;30.20;60.90
26099;DHT22;13860;52.370;6.764;2023-08-21T14:43:32;30.10;61.00
26099;DHT22;13860;52.370;6.764;2023-08-21T14:46:38;29.90;61.50
26099;DHT22;13860;52.370;6.764;2023-08-21T14:49:46;30.10;63.60
26099;DHT22;13860;52.370;6.764;2023-08-21T14:52:53;30.20;66.40
26099;DHT22;13860;52.370;6.764;2023-08-21T15:08:38;29.80;82.40
26099;DHT22;13860;52.370;6.764;2023-08-21T15:11:44;29.80;80.60
26099;DHT22;13860;52.370;6.764;2023-08-21T15:14:55;29.70;81.40
26099;DHT22;13860;52.370;6.764;2023-08-21T15:30:34;29.70;83.40
26099;DHT22;13860;52.370;6.764;2023-08-21T15:33:41;29.80;76.70
26099;DHT22;13860;52.370;6.764;2023-08-21T15:36:47;29.80;77.10
26099;DHT22;13860;52.370;6.764;2023-08-21T15:39:55;29.80;79.30
26099;DHT22;13860;52.370;6.764;2023-08-21T15:43:02;29.70;78.30
26099;DHT22;13860;52.370;6.764;2023-08-21T15:46:16;29.70;78.60
26099;DHT22;13860;52.370;6.764;2023-08-21T15:49:23;29.70;75.00
26099;DHT22;13860;52.370;6.764;2023-08-21T15:52:31;29.90;72.50
26099;DHT22;13860;52.370;6.764;2023-08-21T15:55:38;29.80;72.50
26099;DHT22;13860;52.370;6.764;2023-08-21T15:58:46;29.70;72.00
26099;DHT22;13860;52.370;6.764;2023-08-21T16:01:57;29.70;72.50
26099;DHT22;13860;52.370;6.764;2023-08-21T16:05:05;29.50;74.50
26099;DHT22;13860;52.370;6.764;2023-08-21T16:08:11;29.30;73.40
26099;DHT22;13860;52.370;6.764;2023-08-21T16:11:18;29.40;70.20
26099;DHT22;13860;52.370;6.764;2023-08-21T16:14:24;29.30;70.10
26099;DHT22;13860;52.370;6.764;2023-08-21T16:17:34;29.20;68.20
26099;DHT22;13860;52.370;6.764;2023-08-21T16:20:39;29.20;68.40
26099;DHT22;13860;52.370;6.764;2023-08-21T16:23:47;29.10;69.30
26099;DHT22;13860;52.370;6.764;2023-08-21T16:26:56;29.10;71.30
26099;DHT22;13860;52.370;6.764;2023-08-21T16:30:04;29.10;74.10
26099;DHT22;13860;52.370;6.764;2023-08-21T16:33:13;29.10;75.70
26099;DHT22;13860;52.370;6.764;2023-08-21T16:36:20;29.00;73.50
26099;DHT22;13860;52.370;6.764;2023-08-21T16:39:26;28.80;71.40
26099;DHT22;13860;52.370;6.764;2023-08-21T16:42:33;28.80;70.10
26099;DHT22;13860;52.370;6.764;2023-08-21T16:45:39;28.80;70.00
26099;DHT22;13860;52.370;6.764;2023-08-21T16:48:49;28.70;68.70
26099;DHT22;13860;52.370;6.764;2023-08-21T16:51:54;28.70;67.70
26099;DHT22;13860;52.370;6.764;2023-08-21T16:55:02;28.60;66.70
26099;DHT22;13860;52.370;6.764;2023-08-21T16:58:07;28.60;66.30
26099;DHT22;13860;52.370;6.764;2023-08-21T17:01:15;28.60;66.90
26099;DHT22;13860;52.370;6.764;2023-08-21T17:04:25;28.50;66.70
26099;DHT22;13860;52.370;6.764;2023-08-21T17:07:33;28.40;67.70
26099;DHT22;13860;52.370;6.764;2023-08-21T17:10:40;28.70;70.60
26099;DHT22;13860;52.370;6.764;2023-08-21T17:13:48;28.30;69.40
26099;DHT22;13860;52.370;6.764;2023-08-21T17:16:53;28.30;70.80
26099;DHT22;13860;52.370;6.764;2023-08-21T17:20:04;28.30;70.00
26099;DHT22;13860;52.370;6.764;2023-08-21T17:23:10;28.10;67.30
26099;DHT22;13860;52.370;6.764;2023-08-21T17:26:17;28.00;66.10
26099;DHT22;13860;52.370;6.764;2023-08-21T17:29:23;28.00;66.10
26099;DHT22;13860;52.370;6.764;2023-08-21T17:32:30;27.90;66.30
26099;DHT22;13860;52.370;6.764;2023-08-21T17:35:40;27.80;67.40
26099;DHT22;13860;52.370;6.764;2023-08-21T17:38:47;27.80;67.60
26099;DHT22;13860;52.370;6.764;2023-08-21T17:41:53;27.70;68.40
26099;DHT22;13860;52.370;6.764;2023-08-21T17:45:01;27.70;69.40
26099;DHT22;13860;52.370;6.764;2023-08-21T17:48:09;27.60;73.30
26099;DHT22;13860;52.370;6.764;2023-08-21T17:51:19;27.70;71.80
26099;DHT22;13860;52.370;6.764;2023-08-21T17:54:24;27.60;68.80
26099;DHT22;13860;52.370;6.764;2023-08-21T17:57:32;27.40;66.80
26099;DHT22;13860;52.370;6.764;2023-08-21T18:00:39;27.40;66.10
26099;DHT22;13860;52.370;6.764;2023-08-21T18:03:47;27.30;65.40
26099;DHT22;13860;52.370;6.764;2023-08-21T18:06:54;27.20;65.10
26099;DHT22;13860;52.370;6.764;2023-08-21T18:10:02;27.30;65.40
26099;DHT22;13860;52.370;6.764;2023-08-21T18:13:08;27.00;65.50
26099;DHT22;13860;52.370;6.764;2023-08-21T18:16:15;26.50;66.70
26099;DHT22;13860;52.370;6.764;2023-08-21T18:19:21;26.90;67.40
26099;DHT22;13860;52.370;6.764;2023-08-21T18:22:46;26.80;67.60
26099;DHT22;13860;52.370;6.764;2023-08-21T18:25:53;26.80;68.00
26099;DHT22;13860;52.370;6.764;2023-08-21T18:29:00;26.70;67.80
26099;DHT22;13860;52.370;6.764;2023-08-21T18:32:07;26.50;67.10
26099;DHT22;13860;52.370;6.764;2023-08-21T18:35:15;26.50;67.10
26099;DHT22;13860;52.370;6.764;2023-08-21T18:38:23;26.50;66.70
26099;DHT22;13860;52.370;6.764;2023-08-21T18:41:31;26.40;67.10
26099;DHT22;13860;52.370;6.764;2023-08-21T18:44:36;26.30;67.80
26099;DHT22;13860;52.370;6.764;2023-08-21T18:47:43;26.20;69.00
26099;DHT22;13860;52.370;6.764;2023-08-21T18:50:50;26.10;69.10
26099;DHT22;13860;52.370;6.764;2023-08-21T18:54:03;26.20;74.10
26099;DHT22;13860;52.370;6.764;2023-08-21T18:57:09;26.00;76.60
26099;DHT22;13860;52.370;6.764;2023-08-21T19:00:17;25.90;68.20
26099;DHT22;13860;52.370;6.764;2023-08-21T19:03:22;25.80;68.30
26099;DHT22;13860;52.370;6.764;2023-08-21T19:06:49;25.70;70.60
26099;DHT22;13860;52.370;6.764;2023-08-21T19:10:12;25.60;72.50
26099;DHT22;13860;52.370;6.764;2023-08-21T19:13:20;25.60;71.60
26099;DHT22;13860;52.370;6.764;2023-08-21T19:16:25;25.50;72.40
26099;DHT22;13860;52.370;6.764;2023-08-21T19:19:32;25.40;72.00
26099;DHT22;13860;52.370;6.764;2023-08-21T19:22:38;25.40;72.10
26099;DHT22;13860;52.370;6.764;2023-08-21T19:25:48;25.30;72.10
26099;DHT22;13860;52.370;6.764;2023-08-21T19:28:53;25.20;72.40
26099;DHT22;13860;52.370;6.764;2023-08-21T19:32:02;25.10;70.70
26099;DHT22;13860;52.370;6.764;2023-08-21T19:35:08;25.00;70.10
26099;DHT22;13860;52.370;6.764;2023-08-21T19:38:16;25.00;70.20
26099;DHT22;13860;52.370;6.764;2023-08-21T19:41:25;24.80;69.30
26099;DHT22;13860;52.370;6.764;2023-08-21T19:44:32;24.80;71.30
26099;DHT22;13860;52.370;6.764;2023-08-21T19:47:37;24.60;71.50
26099;DHT22;13860;52.370;6.764;2023-08-21T19:50:45;24.60;71.80
26099;DHT22;13860;52.370;6.764;2023-08-21T19:53:50;24.50;73.10
26099;DHT22;13860;52.370;6.764;2023-08-21T19:57:02;24.50;72.20
26099;DHT22;13860;52.370;6.764;2023-08-21T20:00:08;24.50;73.10
26099;DHT22;13860;52.370;6.764;2023-08-21T20:03:17;24.40;71.80
26099;DHT22;13860;52.370;6.764;2023-08-21T20:06:22;24.30;71.50
26099;DHT22;13860;52.370;6.764;2023-08-21T20:09:30;24.30;71.90
26099;DHT22;13860;52.370;6.764;2023-08-21T20:12:38;24.20;72.30